createdAt,value
2018-06-04T00:02:28.468Z,16.60
2018-06-04T00:04:57.019Z,18.77
2018-06-04T00:07:25.531Z,20.57
2018-06-04T00:09:53.802Z,19.17
2018-06-04T00:12:22.383Z,18.73
2018-06-04T00:14:50.852Z,16.90
2018-06-04T00:17:19.405Z,16.70
2018-06-04T00:19:47.896Z,19.73
2018-06-04T00:22:16.447Z,17.77
2018-06-04T00:24:44.971Z,19.27
2018-06-04T00:27:13.540Z,17.03
2018-06-04T00:29:42.026Z,15.47
2018-06-04T00:32:10.540Z,17.80
2018-06-04T00:34:39.102Z,19.30
2018-06-04T00:37:07.621Z,17.33
2018-06-04T00:39:36.154Z,16.30
2018-06-04T00:42:04.725Z,18.73
2018-06-04T00:44:33.271Z,19.60
2018-06-04T00:47:01.838Z,17.63
2018-06-04T00:49:30.106Z,18.63
2018-06-04T00:51:58.604Z,20.67
2018-06-04T00:54:26.866Z,15.87
2018-06-04T00:56:55.348Z,18.53
2018-06-04T00:59:23.627Z,18.00
2018-06-04T01:01:51.862Z,18.87
2018-06-04T01:04:20.347Z,18.00
2018-06-04T01:06:48.899Z,16.93
2018-06-04T01:09:17.395Z,19.57
2018-06-04T01:11:45.967Z,19.37
2018-06-04T01:14:14.483Z,18.07
2018-06-04T01:16:43.036Z,17.33
2018-06-04T01:19:11.543Z,18.57
2018-06-04T01:21:40.099Z,18.53
2018-06-04T01:24:08.604Z,19.57
2018-06-04T01:26:37.144Z,17.13
2018-06-04T01:29:05.645Z,14.77
2018-06-04T01:31:34.196Z,17.60
2018-06-04T01:34:02.424Z,15.87
2018-06-04T01:36:30.931Z,15.97
2018-06-04T01:38:59.454Z,19.97
2018-06-04T01:41:27.955Z,20.53
2018-06-04T01:43:56.515Z,18.67
2018-06-04T01:46:25.060Z,19.23
2018-06-04T01:48:53.611Z,16.30
2018-06-04T01:51:22.083Z,17.10
2018-06-04T01:53:50.619Z,18.63
2018-06-04T01:56:18.887Z,17.27
2018-06-04T01:58:47.380Z,18.03
2018-06-04T02:01:15.646Z,15.17
2018-06-04T02:03:44.137Z,18.67
2018-06-04T02:06:12.431Z,18.37
2018-06-04T02:08:40.927Z,16.93
2018-06-04T02:11:09.998Z,16.57
2018-06-04T02:13:38.560Z,16.90
2018-06-04T02:16:07.323Z,17.13
2018-06-04T02:18:35.842Z,18.33
2018-06-04T02:21:04.425Z,17.50
2018-06-04T02:23:32.710Z,15.23
2018-06-04T02:26:01.329Z,18.03
2018-06-04T02:28:29.972Z,17.60
2018-06-04T02:30:58.200Z,17.83
2018-06-04T02:33:26.819Z,17.53
2018-06-04T02:35:55.345Z,18.63
2018-06-04T02:38:23.904Z,14.83
2018-06-04T02:40:52.413Z,14.90
2018-06-04T02:43:21.010Z,15.67
2018-06-04T02:45:49.740Z,16.60
2018-06-04T02:48:18.077Z,17.20
2018-06-04T02:50:46.595Z,17.30
2018-06-04T02:53:14.887Z,16.83
2018-06-04T02:55:49.097Z,18.10
2018-06-04T02:58:23.169Z,20.33
2018-06-04T03:00:57.218Z,16.23
2018-06-04T03:03:31.197Z,18.73
2018-06-04T03:06:06.264Z,15.27
2018-06-04T03:08:40.022Z,18.13
2018-06-04T03:11:12.920Z,17.70
2018-06-04T03:13:46.805Z,18.97
2018-06-04T03:16:20.821Z,18.37
2018-06-04T03:18:54.931Z,18.17
2018-06-04T03:21:29.157Z,19.70
2018-06-04T03:24:03.609Z,18.20
2018-06-04T03:26:37.323Z,16.63
2018-06-04T03:29:11.112Z,18.37
2018-06-04T03:31:45.409Z,15.57
2018-06-04T03:34:19.308Z,15.40
2018-06-04T03:36:53.402Z,18.80
2018-06-04T03:39:22.075Z,18.73
2018-06-04T03:41:50.620Z,19.50
2018-06-04T03:44:19.132Z,17.57
2018-06-04T03:46:47.689Z,19.37
2018-06-04T03:49:15.974Z,19.23
2018-06-04T03:51:44.535Z,15.57
2018-06-04T03:54:13.059Z,18.33
2018-06-04T03:56:41.626Z,20.60
2018-06-04T03:59:10.129Z,18.87
2018-06-04T04:01:38.656Z,19.53
2018-06-04T04:04:07.222Z,20.00
2018-06-04T04:06:35.777Z,19.17
2018-06-04T04:09:06.387Z,20.07
2018-06-04T04:11:34.903Z,20.17
2018-06-04T04:14:03.487Z,20.63
2018-06-04T04:16:33.286Z,21.23
2018-06-04T04:19:01.937Z,21.10
2018-06-04T04:21:30.723Z,20.37
2018-06-04T04:23:59.574Z,20.43
2018-06-04T04:26:28.092Z,20.80
2018-06-04T04:28:56.363Z,19.80
2018-06-04T04:31:24.876Z,19.33
2018-06-04T04:33:53.448Z,20.13
2018-06-04T04:36:22.065Z,21.23
2018-06-04T04:38:50.647Z,21.47
2018-06-04T04:41:19.245Z,20.33
2018-06-04T04:43:47.760Z,20.30
2018-06-04T04:46:16.336Z,23.40
2018-06-04T04:48:44.890Z,19.43
2018-06-04T04:51:13.465Z,18.57
2018-06-04T04:53:41.979Z,21.43
2018-06-04T04:56:10.582Z,19.63
2018-06-04T04:58:39.159Z,19.77
2018-06-04T05:01:07.761Z,19.20
2018-06-04T05:03:36.300Z,18.37
2018-06-04T05:06:04.856Z,17.90
2018-06-04T05:08:33.615Z,21.70
2018-06-04T05:11:02.140Z,23.93
2018-06-04T05:13:31.980Z,18.87
2018-06-04T05:16:00.697Z,18.43
2018-06-04T05:18:29.260Z,22.10
2018-06-04T05:20:57.505Z,22.50
2018-06-04T05:23:26.017Z,19.53
2018-06-04T05:25:54.604Z,23.43
2018-06-04T05:28:22.872Z,21.87
2018-06-04T05:30:51.378Z,25.83
2018-06-04T05:33:19.952Z,22.40
2018-06-04T05:35:48.184Z,21.40
2018-06-04T05:38:16.752Z,23.27
2018-06-04T05:40:45.287Z,23.77
2018-06-04T05:43:13.553Z,25.37
2018-06-04T05:45:42.110Z,24.23
2018-06-04T05:48:10.641Z,20.87
2018-06-04T05:50:39.225Z,23.20
2018-06-04T05:53:07.731Z,24.37
2018-06-04T05:55:36.230Z,24.13
2018-06-04T05:58:04.840Z,23.40
2018-06-04T06:00:33.400Z,25.27
2018-06-04T06:03:02.875Z,22.57
2018-06-04T06:05:32.517Z,20.83
2018-06-04T06:08:02.014Z,22.43
2018-06-04T06:10:30.652Z,20.53
2018-06-04T06:12:59.696Z,21.90
2018-06-04T06:15:28.226Z,23.37
2018-06-04T06:17:56.855Z,19.87
2018-06-04T06:20:25.359Z,21.93
2018-06-04T06:22:53.867Z,21.07
2018-06-04T06:25:22.210Z,20.77
2018-06-04T06:27:50.670Z,19.70
2018-06-04T06:30:19.208Z,20.00
2018-06-04T06:32:47.489Z,21.40
2018-06-04T06:35:15.711Z,17.70
2018-06-04T06:37:44.264Z,18.97
2018-06-04T06:40:12.809Z,18.50
2018-06-04T06:42:41.409Z,17.07
2018-06-04T06:45:10.056Z,17.40
2018-06-04T06:47:38.654Z,15.77
2018-06-04T06:50:07.239Z,18.67
2018-06-04T06:52:35.793Z,16.30
2018-06-04T06:55:04.309Z,15.33
2018-06-04T06:57:32.958Z,14.83
2018-06-04T07:00:02.564Z,15.93
2018-06-04T07:02:32.273Z,16.57
2018-06-04T07:05:01.825Z,14.90
2018-06-04T07:07:30.115Z,15.30
2018-06-04T07:09:58.694Z,14.30
2018-06-04T07:12:27.220Z,12.90
2018-06-04T07:14:56.489Z,11.77
2018-06-04T07:17:26.250Z,10.73
2018-06-04T07:19:55.459Z,11.33
2018-06-04T07:22:24.013Z,12.57
2018-06-04T07:24:52.665Z,12.00
2018-06-04T07:27:21.413Z,10.90
2018-06-04T07:29:50.031Z,12.67
2018-06-04T07:32:18.781Z,10.77
2018-06-04T07:34:47.560Z,12.17
2018-06-04T07:37:16.246Z,13.50
2018-06-04T07:39:44.909Z,12.93
2018-06-04T07:42:13.612Z,13.43
2018-06-04T07:44:42.288Z,13.13
2018-06-04T07:47:11.010Z,13.37
2018-06-04T07:49:39.363Z,10.83
2018-06-04T07:52:08.043Z,10.37
2018-06-04T07:54:36.670Z,11.03
2018-06-04T07:57:05.509Z,13.60
2018-06-04T07:59:34.113Z,12.30
2018-06-04T08:02:02.839Z,12.53
2018-06-04T08:04:32.125Z,11.77
2018-06-04T08:07:00.891Z,11.13
2018-06-04T08:09:30.187Z,11.23
2018-06-04T08:11:58.850Z,11.73
2018-06-04T08:14:27.851Z,10.63
2018-06-04T08:16:56.662Z,12.40
2018-06-04T08:19:25.323Z,12.17
2018-06-04T08:21:54.013Z,12.43
2018-06-04T08:24:22.841Z,11.73
2018-06-04T08:26:51.220Z,11.40
2018-06-04T08:29:19.958Z,11.40
2018-06-04T08:31:48.589Z,12.83
2018-06-04T08:34:16.943Z,11.77
2018-06-04T08:36:45.563Z,12.83
2018-06-04T08:39:14.336Z,12.10
2018-06-04T08:41:42.652Z,13.00
2018-06-04T08:44:11.361Z,11.67
2018-06-04T08:46:40.114Z,12.17
2018-06-04T08:49:08.867Z,12.70
2018-06-04T08:51:37.519Z,12.88
2018-06-04T08:54:06.148Z,13.30
2018-06-04T08:56:34.964Z,11.50
2018-06-04T08:59:03.693Z,12.75
2018-06-04T09:01:32.769Z,12.70
2018-06-04T09:04:02.088Z,13.00
2018-06-04T09:06:31.751Z,11.95
2018-06-04T09:09:00.603Z,10.50
2018-06-04T09:11:29.833Z,10.48
2018-06-04T09:13:58.408Z,11.78
2018-06-04T09:16:27.196Z,10.88
2018-06-04T09:18:55.995Z,12.07
2018-06-04T13:06:45.779Z,8.53
2018-06-04T13:09:14.732Z,8.20
2018-06-04T13:11:43.518Z,7.87
2018-06-04T13:14:12.277Z,7.97
2018-06-04T13:16:41.063Z,7.97
2018-06-04T13:19:09.918Z,8.73
2018-06-04T13:21:38.797Z,6.97
2018-06-04T13:24:07.494Z,7.40
2018-06-04T13:26:36.090Z,7.97
2018-06-04T13:29:04.680Z,6.95
2018-06-04T13:31:33.307Z,7.10
2018-06-04T13:34:02.125Z,6.95
2018-06-04T13:36:31.445Z,7.42
2018-06-04T13:39:00.822Z,8.18
2018-06-04T13:41:30.156Z,6.22
2018-06-04T13:43:59.771Z,7.15
2018-06-04T13:46:28.535Z,7.22
2018-06-04T13:48:57.257Z,6.97
2018-06-04T13:51:26.023Z,6.60
2018-06-04T13:53:54.845Z,6.62
2018-06-04T13:56:23.227Z,6.80
2018-06-04T13:58:51.967Z,7.00
2018-06-04T14:01:20.502Z,7.85
2018-06-04T14:03:49.163Z,7.05
2018-06-04T14:06:17.867Z,7.53
2018-06-04T14:08:46.167Z,7.70
2018-06-04T14:11:14.829Z,8.13
2018-06-04T14:13:43.559Z,7.75
2018-06-04T14:16:12.197Z,8.28
2018-06-04T14:18:40.542Z,6.75
2018-06-04T14:21:09.152Z,7.30
2018-06-04T14:23:37.765Z,5.95
2018-06-04T14:26:06.507Z,7.05
2018-06-04T14:28:35.339Z,6.65
2018-06-04T14:31:04.026Z,6.35
2018-06-04T14:33:32.863Z,7.08
2018-06-04T14:36:02.309Z,7.62
2018-06-04T14:38:31.320Z,7.53
2018-06-04T14:41:00.887Z,7.70
2018-06-04T14:43:30.368Z,7.15
2018-06-04T14:45:59.703Z,7.53
2018-06-04T14:48:28.357Z,7.60
2018-06-04T14:50:57.100Z,7.72
2018-06-04T14:53:25.760Z,6.67
2018-06-04T14:55:54.100Z,7.92
2018-06-04T14:58:22.684Z,6.72
2018-06-04T15:00:51.251Z,7.55
2018-06-04T15:03:19.815Z,7.42
2018-06-04T15:05:48.428Z,7.70
2018-06-04T15:08:17.003Z,7.65
2018-06-04T15:10:45.663Z,7.70
2018-06-04T15:13:14.295Z,6.87
2018-06-04T15:15:42.835Z,7.87
2018-06-04T15:18:11.555Z,7.37
2018-06-04T15:20:40.278Z,7.45
2018-06-04T15:23:08.972Z,7.45
2018-06-04T15:25:37.556Z,7.25
2018-06-04T15:28:06.332Z,6.90
2018-06-04T15:30:35.018Z,8.10
2018-06-04T15:33:03.670Z,7.83
2018-06-04T15:35:32.977Z,7.42
2018-06-04T15:38:02.233Z,7.00
2018-06-04T15:40:31.565Z,7.05
2018-06-04T15:43:00.904Z,7.28
2018-06-04T15:45:30.103Z,7.05
2018-06-04T15:47:58.571Z,7.75
2018-06-04T15:50:28.315Z,6.97
2018-06-04T15:52:57.012Z,7.85
2018-06-04T15:55:25.732Z,7.75
2018-06-04T15:57:54.366Z,7.83
2018-06-04T16:00:23.083Z,7.00
2018-06-04T16:02:51.871Z,7.12
2018-06-04T16:05:20.510Z,7.07
2018-06-04T16:07:48.824Z,7.25
2018-06-04T16:10:17.431Z,6.87
2018-06-04T16:12:46.342Z,7.58
2018-06-04T16:15:15.113Z,6.50
2018-06-04T16:17:43.703Z,7.50
2018-06-04T16:20:12.428Z,7.72
2018-06-04T16:22:40.837Z,7.87
2018-06-04T16:25:09.776Z,11.85
2018-06-04T16:27:38.510Z,21.75
2018-06-04T16:30:07.263Z,9.13
2018-06-04T16:32:36.103Z,7.80
2018-06-04T16:35:04.830Z,8.18
2018-06-04T16:37:33.321Z,7.90
2018-06-04T16:40:02.533Z,7.90
2018-06-04T16:42:31.940Z,8.40
2018-06-04T16:45:00.679Z,8.53
2018-06-04T16:47:30.173Z,8.38
2018-06-04T16:49:58.865Z,7.87
2018-06-04T16:52:27.400Z,7.78
2018-06-04T16:54:56.197Z,8.17
2018-06-04T16:57:24.810Z,8.50
2018-06-04T16:59:53.454Z,7.67
2018-06-04T17:02:22.088Z,7.55
2018-06-04T17:04:50.472Z,7.97
2018-06-04T17:07:19.046Z,8.40
2018-06-04T17:09:47.742Z,7.40
2018-06-04T17:12:16.402Z,7.92
2018-06-04T17:14:45.027Z,8.03
2018-06-04T17:17:13.689Z,7.90
2018-06-04T17:19:42.392Z,8.03
2018-06-04T17:22:10.994Z,6.97
2018-06-04T17:24:39.854Z,7.17
2018-06-04T17:27:08.665Z,6.83
2018-06-04T17:29:37.278Z,7.13
2018-06-04T17:32:06.250Z,7.73
2018-06-04T17:34:34.743Z,7.07
2018-06-04T17:37:03.300Z,7.78
2018-06-04T17:39:33.293Z,6.73
2018-06-04T17:42:03.105Z,6.30
2018-06-04T17:44:32.608Z,6.00
2018-06-04T17:47:02.434Z,6.20
2018-06-04T17:49:32.175Z,6.30
2018-06-04T17:52:00.784Z,5.80
2018-06-04T17:54:29.810Z,5.83
2018-06-04T17:56:58.423Z,6.03
2018-06-04T17:59:27.019Z,5.43
2018-06-04T18:01:55.295Z,5.70
2018-06-04T18:04:23.506Z,5.67
2018-06-04T18:06:52.079Z,5.13
2018-06-04T18:09:20.586Z,6.57
2018-06-04T18:11:50.084Z,5.23
2018-06-04T18:14:18.570Z,5.47
2018-06-04T18:16:47.198Z,5.63
2018-06-04T18:19:15.717Z,5.07
2018-06-04T18:21:44.278Z,5.70
2018-06-04T18:24:12.508Z,5.70
2018-06-04T18:26:41.078Z,5.27
2018-06-04T18:29:09.588Z,4.73
2018-06-04T18:31:38.182Z,5.37
2018-06-04T18:34:06.452Z,5.23
2018-06-04T18:36:34.997Z,5.07
2018-06-04T18:39:03.909Z,5.20
2018-06-04T18:41:32.403Z,4.50
2018-06-04T18:44:02.384Z,5.00
2018-06-04T18:46:31.587Z,4.73
2018-06-04T18:49:00.824Z,5.03
2018-06-04T18:51:29.851Z,5.40
2018-06-04T18:53:58.469Z,5.37
2018-06-04T18:56:26.990Z,5.10
2018-06-04T18:58:55.509Z,5.20
2018-06-04T19:01:24.008Z,5.77
2018-06-04T19:03:55.714Z,4.90
2018-06-04T19:06:24.256Z,4.77
2018-06-04T19:08:52.804Z,4.97
2018-06-04T19:11:21.315Z,6.00
2018-06-04T19:13:49.887Z,6.43
2018-06-04T19:16:18.447Z,6.67
2018-06-04T19:18:47.020Z,6.20
2018-06-04T19:21:15.552Z,6.80
2018-06-04T19:23:44.095Z,6.73
2018-06-04T19:26:12.679Z,6.30
2018-06-04T19:28:41.247Z,6.50
2018-06-04T19:31:09.975Z,7.07
2018-06-04T19:33:38.468Z,6.67
2018-06-04T19:36:06.997Z,7.37
2018-06-04T19:38:35.566Z,6.60
2018-06-04T19:41:03.923Z,7.83
2018-06-04T19:43:32.481Z,8.37
2018-06-04T19:46:02.000Z,8.30
2018-06-04T19:48:31.725Z,9.17
2018-06-04T19:51:00.490Z,10.20
2018-06-04T19:53:30.201Z,8.97
2018-06-04T19:55:58.784Z,9.63
2018-06-04T19:58:27.285Z,9.60
2018-06-04T20:00:55.961Z,10.47
2018-06-04T20:03:24.489Z,10.07
2018-06-04T20:05:53.143Z,11.17
2018-06-04T20:08:21.643Z,12.10
2018-06-04T20:10:49.862Z,11.80
2018-06-04T20:13:18.421Z,12.47
2018-06-04T20:15:47.143Z,12.40
2018-06-04T20:18:15.742Z,13.57
2018-06-04T20:20:44.320Z,11.97
2018-06-04T20:23:12.890Z,13.47
2018-06-04T20:25:41.790Z,13.13
2018-06-04T20:28:10.366Z,13.47
2018-06-04T20:30:38.903Z,14.10
2018-06-04T20:33:07.127Z,13.93
2018-06-04T20:35:35.676Z,12.13
2018-06-04T20:38:04.237Z,14.83
2018-06-04T20:40:32.599Z,13.03
2018-06-04T20:43:01.752Z,13.37
2018-06-04T20:45:30.833Z,13.73
2018-06-04T20:47:59.852Z,14.60
2018-06-04T20:50:28.474Z,13.10
2018-06-04T20:52:56.714Z,15.23
2018-06-04T20:55:25.222Z,14.07
2018-06-04T20:57:53.526Z,14.30
2018-06-04T21:00:22.033Z,14.47
2018-06-04T21:02:50.530Z,14.77
2018-06-04T21:05:19.103Z,15.13
2018-06-04T21:07:47.612Z,13.60
2018-06-04T21:10:16.166Z,15.10
2018-06-04T21:12:44.688Z,13.77
2018-06-04T21:15:13.242Z,14.13
2018-06-04T21:17:41.764Z,15.20
2018-06-04T21:20:10.053Z,16.63
2018-06-04T21:22:38.273Z,15.63
2018-06-04T21:25:06.848Z,13.77
2018-06-04T21:27:35.401Z,15.90
2018-06-04T21:30:03.977Z,14.67
2018-06-04T21:32:32.536Z,16.47
2018-06-04T21:35:03.418Z,14.80
2018-06-04T21:37:33.079Z,16.83
2018-06-04T21:40:02.395Z,15.80
2018-06-04T21:42:30.743Z,14.50
2018-06-04T21:44:59.832Z,15.73
2018-06-04T21:47:28.336Z,16.17
2018-06-04T21:49:56.974Z,16.43
2018-06-04T21:52:25.465Z,15.73
2018-06-04T21:54:54.050Z,17.53
2018-06-04T21:57:22.575Z,17.10
2018-06-04T21:59:50.813Z,17.83
2018-06-04T22:02:19.364Z,18.80
2018-06-04T22:04:47.971Z,15.27
2018-06-04T22:07:16.485Z,18.23
2018-06-04T22:09:45.006Z,16.37
2018-06-04T22:12:13.550Z,15.43
2018-06-04T22:14:42.060Z,16.00
2018-06-04T22:17:10.655Z,15.17
2018-06-04T22:19:39.169Z,17.93
2018-06-04T22:22:07.750Z,17.07
2018-06-04T22:24:36.275Z,16.37
2018-06-04T22:27:04.566Z,16.60
2018-06-04T22:29:33.084Z,16.73
2018-06-04T22:32:02.419Z,14.93
2018-06-04T22:34:32.152Z,18.97
2018-06-04T22:37:02.003Z,16.43
2018-06-04T22:39:30.533Z,16.17
2018-06-04T22:41:59.024Z,16.30
2018-06-04T22:44:27.297Z,17.30
2018-06-04T22:46:55.534Z,18.10
2018-06-04T22:49:24.079Z,16.20
2018-06-04T22:51:52.686Z,19.10
2018-06-04T22:54:21.212Z,17.87
2018-06-04T22:56:49.778Z,20.77
2018-06-04T22:59:18.263Z,17.47
2018-06-04T23:01:46.859Z,18.43
2018-06-04T23:04:15.361Z,17.40
2018-06-04T23:06:43.927Z,18.53
2018-06-04T23:09:12.595Z,17.60
2018-06-04T23:11:41.163Z,19.30
2018-06-04T23:14:09.681Z,18.80
2018-06-04T23:16:37.971Z,18.77
2018-06-04T23:19:06.516Z,19.73
2018-06-04T23:21:35.033Z,19.13
2018-06-04T23:24:04.332Z,15.97
2018-06-04T23:26:32.821Z,18.93
2018-06-04T23:29:02.370Z,19.27
2018-06-04T23:31:31.603Z,19.90
2018-06-04T23:33:59.893Z,17.90
2018-06-04T23:36:28.458Z,21.53
2018-06-04T23:38:56.746Z,20.47
2018-06-04T23:41:24.982Z,20.33
2018-06-04T23:43:53.497Z,21.70
2018-06-04T23:46:21.765Z,20.53
2018-06-04T23:48:50.274Z,19.33
2018-06-04T23:51:18.871Z,17.33
2018-06-04T23:53:47.369Z,21.40
2018-06-04T23:56:15.926Z,19.97
2018-06-04T23:58:44.433Z,20.53
